Terminal Aerodrome Forecast
Issued by NWS Topeka, KS

Home | Current Version | Previous Version | Graphics & Text | Print | Product List | Glossary On
Versions: 1 2 3 4 5 6 7 8 9 10 11 12 13 14 15 16 17 18 19 20 21 22 23 24 25
000
FTUS43 KTOP 210500
TAFTOP
TAF
KTOP 210537Z 2106/2206 08005KT P6SM FEW200
     FM211500 10007KT P6SM BKN035
     FM211700 11006KT 6SM -SHRA BR OVC015
     FM220100 12004KT 5SM -DZ BR OVC007=

USA.gov is the U.S. government's official web portal to all federal, state and local government web resources and services.